Time;durP1;ratioP1;P1;durP2;ratioP2;P2;SDS_P1;SDS_P2;PMS_P1;PMS_P2;Temp;Humidity;BMP_temperature;BMP_pressure;BME280_temperature;BME280_humidity;BME280_pressure;Samples;Min_cycle;Max_cycle;Signal;HPM_P1;HPM_P2
2021/11/05 06:37:52;;;;;;;30.35;17.62;;;;;;;13.89;100.00;101508.23;1648986;85;21045;-78
2021/11/05 06:40:20;;;;;;;31.68;19.02;;;;;;;13.93;100.00;101507.09;1643107;86;21741;-77
2021/11/05 06:42:46;;;;;;;30.57;17.80;;;;;;;14.01;100.00;101500.04;1646358;85;21086;-79
2021/11/05 06:45:13;;;;;;;27.60;16.15;;;;;;;14.09;100.00;101498.61;1646555;85;21208;-86
2021/11/05 06:47:43;;;;;;;25.05;14.90;;;;;;;14.18;100.00;101509.73;1633905;86;21112;-81
2021/11/05 06:50:11;;;;;;;25.17;15.50;;;;;;;14.31;100.00;101511.04;1641513;86;21436;-81
2021/11/05 06:52:38;;;;;;;23.60;15.90;;;;;;;14.44;100.00;101513.22;1650056;85;21291;-84
2021/11/05 06:55:06;;;;;;;27.13;15.28;;;;;;;14.56;100.00;101506.30;1657286;85;21160;-78
2021/11/05 06:57:34;;;;;;;21.23;15.20;;;;;;;14.69;100.00;101503.20;1643618;86;21583;-77
2021/11/05 07:00:01;;;;;;;25.62;14.73;;;;;;;14.82;100.00;101504.02;1649401;85;21040;-78
2021/11/05 07:02:28;;;;;;;23.18;13.95;;;;;;;14.95;100.00;101500.91;1635073;85;21041;-78
2021/11/05 07:04:54;;;;;;;31.75;16.00;;;;;;;15.06;100.00;101500.97;1633740;86;21232;-78
2021/11/05 07:07:21;;;;;;;25.23;13.80;;;;;;;15.17;100.00;101500.20;1673010;84;21019;-80
2021/11/05 07:09:48;;;;;;;32.33;16.05;;;;;;;15.29;100.00;101505.85;1686045;84;20972;-77
2021/11/05 07:12:16;;;;;;;26.73;14.83;;;;;;;15.41;100.00;101502.84;1682550;84;21137;-80
2021/11/05 07:14:43;;;;;;;32.25;15.75;;;;;;;15.53;100.00;101492.35;1657488;84;21762;-78
2021/11/05 07:17:10;;;;;;;22.85;15.40;;;;;;;15.65;100.00;101494.52;1663472;84;21792;-80
2021/11/05 07:19:38;;;;;;;22.90;14.98;;;;;;;15.77;100.00;101499.68;1684790;84;21020;-83
2021/11/05 07:22:05;;;;;;;27.32;15.98;;;;;;;15.92;100.00;101500.34;1681478;84;21083;-79
2021/11/05 07:24:32;;;;;;;24.18;15.10;;;;;;;16.04;100.00;101501.19;1683073;84;21526;-76
2021/11/05 07:27:01;;;;;;;21.62;14.03;;;;;;;16.16;100.00;101505.02;1672212;84;22201;-83
2021/11/05 07:29:28;;;;;;;24.50;14.40;;;;;;;16.31;100.00;101503.84;1663591;84;21162;-79
2021/11/05 07:31:56;;;;;;;21.27;15.05;;;;;;;16.46;100.00;101502.32;1674270;84;21105;-80
2021/11/05 07:34:23;;;;;;;23.62;14.45;;;;;;;16.58;100.00;101491.75;1647166;86;21111;-81
2021/11/05 07:36:49;;;;;;;22.42;14.28;;;;;;;16.73;100.00;101497.09;1642381;86;21073;-74
2021/11/05 07:39:16;;;;;;;24.00;14.70;;;;;;;16.89;100.00;101496.25;1654028;85;21218;-80
2021/11/05 07:41:43;;;;;;;21.90;13.90;;;;;;;17.05;100.00;101493.24;1646026;85;21264;-81
2021/11/05 07:44:11;;;;;;;19.50;13.43;;;;;;;17.20;100.00;101499.06;1648199;84;21020;-79
2021/11/05 07:46:40;;;;;;;22.95;12.78;;;;;;;17.38;100.00;101502.34;1638769;85;20984;-78
2021/11/05 07:49:06;;;;;;;17.60;12.25;;;;;;;17.63;100.00;101499.89;1660036;85;21481;-80
2021/11/05 07:51:35;;;;;;;15.80;10.20;;;;;;;17.89;100.00;101495.11;1668981;85;21059;-77
2021/11/05 07:54:02;;;;;;;13.80;9.65;;;;;;;18.10;100.00;101501.66;1664504;84;21240;-77
2021/11/05 07:56:29;;;;;;;16.07;9.40;;;;;;;18.29;100.00;101500.45;1661988;85;21077;-76
2021/11/05 07:58:57;;;;;;;16.82;9.23;;;;;;;18.42;100.00;101510.27;1669876;84;21145;-78
2021/11/05 08:01:23;;;;;;;13.35;8.63;;;;;;;18.51;100.00;101510.02;1647322;85;21129;-78
2021/11/05 08:03:52;;;;;;;16.70;10.13;;;;;;;18.61;100.00;101504.30;1611597;87;21051;-82
2021/11/05 08:06:19;;;;;;;16.67;10.08;;;;;;;18.71;100.00;101505.17;1636912;85;22183;-78
2021/11/05 08:08:47;;;;;;;15.83;10.03;;;;;;;18.73;100.00;101505.38;1616109;86;20958;-80
2021/11/05 09:03:49;;;;;;;17.02;9.38;;;;;;;18.94;94.30;101498.27;1617351;87;21133;-78
2021/11/05 09:06:16;;;;;;;16.95;9.20;;;;;;;18.92;94.56;101498.86;1606143;87;21575;-80
2021/11/05 09:08:48;;;;;;;18.40;10.53;;;;;;;18.97;94.84;101498.47;1612401;87;20995;-77
2021/11/05 09:11:15;;;;;;;18.55;10.25;;;;;;;19.07;95.25;101502.44;1608786;87;21871;-78
2021/11/05 09:13:42;;;;;;;17.77;10.05;;;;;;;19.18;94.10;101508.88;1609897;87;21513;-79
2021/11/05 09:16:09;;;;;;;18.73;11.12;;;;;;;19.32;93.52;101500.61;1613498;86;21106;-80
2021/11/05 09:18:37;;;;;;;18.92;11.28;;;;;;;19.74;92.38;101497.25;1609014;87;21651;-76
2021/11/05 09:21:07;;;;;;;17.25;11.22;;;;;;;20.19;88.19;101491.70;1607351;87;21197;-76
2021/11/05 09:23:35;;;;;;;15.28;9.33;;;;;;;20.64;85.83;101498.44;1613169;87;21085;-76
2021/11/05 09:26:02;;;;;;;16.40;9.50;;;;;;;21.13;82.52;101499.84;1611203;87;21191;-73
2021/11/05 09:28:33;;;;;;;17.98;9.70;;;;;;;21.63;80.02;101507.59;1607689;87;20990;-79
2021/11/05 09:31:00;;;;;;;14.43;8.73;;;;;;;22.08;76.87;101506.67;1601002;87;21016;-75
2021/11/05 09:33:26;;;;;;;14.73;9.20;;;;;;;22.38;74.62;101504.02;1619709;87;21817;-78
